createdAt,value
2022-12-31T00:00:39.150Z,12.56
2022-12-31T00:03:08.475Z,12.52
2022-12-31T00:05:37.245Z,12.55
2022-12-31T00:08:04.870Z,12.53
2022-12-31T00:10:34.252Z,12.50
2022-12-31T00:13:01.391Z,12.49
2022-12-31T00:15:28.678Z,12.50
2022-12-31T00:17:55.683Z,12.50
2022-12-31T00:20:23.152Z,12.48
2022-12-31T00:22:50.781Z,12.50
2022-12-31T00:25:18.001Z,12.51
2022-12-31T00:27:44.987Z,12.52
2022-12-31T00:30:13.128Z,12.54
2022-12-31T00:32:40.334Z,12.54
2022-12-31T00:35:08.759Z,12.56
2022-12-31T00:37:35.754Z,12.56
2022-12-31T00:40:02.916Z,12.61
2022-12-31T00:42:29.928Z,12.62
2022-12-31T00:44:56.862Z,12.68
2022-12-31T00:47:24.682Z,12.68
2022-12-31T00:49:51.698Z,12.70
2022-12-31T00:52:18.901Z,12.73
2022-12-31T00:54:45.869Z,12.75
2022-12-31T00:57:13.122Z,12.79
2022-12-31T00:59:40.077Z,12.79
2022-12-31T01:02:07.293Z,12.76
2022-12-31T01:04:34.477Z,12.78
2022-12-31T01:07:01.447Z,12.82
2022-12-31T01:09:28.460Z,12.87
2022-12-31T01:11:55.471Z,12.93
2022-12-31T01:14:22.907Z,12.96
2022-12-31T01:16:53.110Z,12.96
2022-12-31T01:19:22.770Z,13.03
2022-12-31T01:21:51.492Z,13.04
2022-12-31T01:24:19.359Z,13.15
2022-12-31T01:26:47.117Z,13.15
2022-12-31T01:29:14.890Z,13.12
2022-12-31T01:31:42.011Z,13.14
2022-12-31T01:34:09.726Z,13.15
2022-12-31T01:36:38.920Z,13.13
2022-12-31T01:39:08.441Z,13.22
2022-12-31T01:41:42.692Z,13.25
2022-12-31T01:44:12.687Z,13.24
2022-12-31T01:46:46.090Z,13.30
2022-12-31T01:49:32.470Z,13.27
2022-12-31T01:52:09.048Z,13.29
2022-12-31T01:54:42.804Z,13.24
2022-12-31T01:57:11.177Z,13.31
2022-12-31T01:59:38.390Z,13.30
2022-12-31T02:02:06.434Z,13.38
2022-12-31T02:04:34.000Z,13.36
2022-12-31T02:07:09.466Z,13.35
2022-12-31T02:09:40.003Z,13.43
2022-12-31T02:12:09.481Z,13.42
2022-12-31T02:14:44.866Z,13.33
2022-12-31T02:17:38.676Z,13.45
2022-12-31T02:20:55.861Z,13.52
2022-12-31T02:24:04.797Z,13.47
2022-12-31T02:27:02.005Z,13.53
2022-12-31T02:30:03.972Z,13.78
2022-12-31T02:33:15.172Z,13.83
2022-12-31T02:36:01.205Z,13.82
2022-12-31T02:38:33.485Z,13.87
2022-12-31T02:41:00.730Z,13.85
2022-12-31T02:43:28.324Z,13.88
2022-12-31T02:46:28.122Z,13.85
2022-12-31T02:49:16.174Z,13.84
2022-12-31T02:52:26.949Z,13.86
2022-12-31T02:55:09.015Z,13.75
2022-12-31T02:57:47.584Z,13.72
2022-12-31T03:00:36.078Z,13.75
2022-12-31T03:03:06.560Z,13.71
2022-12-31T03:05:40.252Z,13.75
2022-12-31T03:08:07.811Z,13.75
2022-12-31T03:10:35.314Z,13.78
2022-12-31T03:13:03.177Z,13.83
2022-12-31T03:15:33.356Z,13.85
2022-12-31T03:18:09.179Z,13.92
2022-12-31T03:21:00.237Z,13.84
2022-12-31T03:23:30.568Z,13.92
2022-12-31T03:25:59.619Z,13.90
2022-12-31T03:28:30.220Z,13.98
2022-12-31T03:31:01.055Z,13.90
2022-12-31T03:33:36.943Z,13.97
2022-12-31T03:36:11.859Z,13.99
2022-12-31T03:38:39.304Z,13.97
2022-12-31T03:41:06.621Z,13.90
2022-12-31T03:43:33.901Z,13.93
2022-12-31T03:46:01.513Z,13.99
2022-12-31T03:48:29.236Z,13.99
2022-12-31T03:50:56.227Z,14.03
2022-12-31T03:53:23.515Z,14.16
2022-12-31T03:55:54.448Z,14.18
2022-12-31T03:58:22.678Z,14.16
2022-12-31T04:00:50.154Z,14.12
2022-12-31T04:03:17.275Z,14.17
2022-12-31T04:05:44.304Z,14.23
2022-12-31T04:08:11.274Z,14.16
2022-12-31T04:10:38.456Z,14.32
2022-12-31T04:13:05.422Z,14.32
2022-12-31T04:15:32.638Z,14.34
2022-12-31T04:17:59.788Z,14.36
2022-12-31T04:20:26.738Z,14.34
2022-12-31T04:22:53.667Z,14.46
2022-12-31T04:25:20.784Z,14.44
2022-12-31T04:27:47.943Z,14.48
2022-12-31T04:30:15.348Z,14.50
2022-12-31T04:32:43.817Z,14.61
2022-12-31T04:35:12.337Z,14.53
2022-12-31T04:37:39.824Z,14.53
2022-12-31T04:40:09.004Z,14.56
2022-12-31T04:42:36.756Z,14.55
2022-12-31T04:45:04.770Z,14.51
2022-12-31T04:47:31.982Z,14.50
2022-12-31T04:49:59.157Z,14.53
2022-12-31T04:52:26.184Z,14.55
2022-12-31T04:54:53.219Z,14.61
2022-12-31T04:57:20.662Z,14.60
2022-12-31T04:59:48.017Z,14.62
2022-12-31T05:02:16.398Z,14.59
2022-12-31T05:04:44.322Z,14.66
2022-12-31T05:07:11.249Z,14.68
2022-12-31T05:09:38.343Z,14.78
2022-12-31T05:12:05.875Z,14.72
2022-12-31T05:14:32.821Z,14.75
2022-12-31T05:17:01.115Z,14.72
2022-12-31T05:19:28.213Z,14.72
2022-12-31T05:22:13.645Z,14.71
2022-12-31T05:24:40.746Z,14.74
2022-12-31T05:27:07.777Z,14.68
2022-12-31T05:29:34.824Z,14.75
2022-12-31T05:32:02.109Z,14.88
2022-12-31T05:34:29.367Z,14.87
2022-12-31T05:36:56.302Z,14.89
2022-12-31T05:39:23.275Z,14.87
2022-12-31T05:41:51.808Z,14.82
2022-12-31T05:44:19.001Z,14.80
2022-12-31T05:46:47.454Z,14.88
2022-12-31T05:49:14.482Z,14.87
2022-12-31T05:51:41.472Z,14.95
2022-12-31T05:54:08.603Z,14.92
2022-12-31T05:56:36.911Z,14.89
2022-12-31T05:59:04.018Z,14.80
2022-12-31T06:01:31.329Z,14.67
2022-12-31T06:03:58.995Z,14.66
2022-12-31T06:06:28.887Z,14.59
2022-12-31T06:08:56.031Z,14.60
2022-12-31T06:11:23.090Z,14.56
2022-12-31T06:13:50.044Z,14.55
2022-12-31T06:16:17.211Z,14.51
2022-12-31T06:18:44.437Z,14.53
2022-12-31T06:21:11.848Z,14.55
2022-12-31T06:23:40.979Z,14.55
2022-12-31T06:26:08.971Z,14.54
2022-12-31T06:28:36.352Z,14.52
2022-12-31T06:31:06.570Z,14.51
2022-12-31T06:33:34.472Z,14.50
2022-12-31T06:36:05.229Z,14.55
2022-12-31T06:38:34.315Z,14.51
2022-12-31T06:41:06.465Z,14.53
2022-12-31T06:43:35.346Z,14.55
2022-12-31T06:46:03.651Z,14.51
2022-12-31T06:48:31.210Z,14.44
2022-12-31T06:51:10.637Z,14.44
2022-12-31T06:53:41.317Z,14.45
2022-12-31T06:56:16.797Z,14.50
2022-12-31T06:58:45.901Z,14.52
2022-12-31T07:01:49.297Z,14.52
2022-12-31T07:05:02.745Z,14.50
2022-12-31T07:08:09.114Z,14.52
2022-12-31T07:10:45.584Z,14.49
2022-12-31T07:13:57.595Z,14.41
2022-12-31T07:17:00.380Z,14.42
2022-12-31T07:19:59.537Z,14.41
2022-12-31T07:22:27.022Z,14.41
2022-12-31T07:24:54.477Z,14.39
2022-12-31T07:27:49.383Z,14.35
2022-12-31T07:30:35.342Z,14.36
2022-12-31T07:33:17.320Z,14.32
2022-12-31T07:36:13.130Z,14.30
2022-12-31T07:39:15.031Z,14.33
2022-12-31T07:42:05.161Z,14.34
2022-12-31T07:44:54.196Z,14.32
2022-12-31T07:47:29.103Z,14.28
2022-12-31T07:49:57.653Z,14.33
2022-12-31T07:52:26.207Z,14.30
2022-12-31T07:54:53.365Z,14.36
2022-12-31T07:57:23.917Z,14.29
2022-12-31T08:00:15.121Z,14.35
2022-12-31T08:03:15.053Z,14.37
2022-12-31T08:06:22.239Z,14.38
2022-12-31T08:09:12.843Z,14.40
2022-12-31T08:11:55.364Z,14.45
2022-12-31T08:14:23.597Z,14.44
2022-12-31T08:16:51.180Z,14.45
2022-12-31T08:19:31.807Z,14.50
2022-12-31T08:22:24.911Z,14.56
2022-12-31T08:25:30.741Z,14.72
2022-12-31T08:28:21.331Z,14.63
2022-12-31T08:31:01.982Z,14.58
2022-12-31T08:34:06.129Z,14.66
2022-12-31T08:37:15.304Z,14.70
2022-12-31T08:40:21.550Z,14.78
2022-12-31T08:43:15.714Z,14.77
2022-12-31T08:46:05.142Z,14.87
2022-12-31T08:48:43.303Z,14.86
2022-12-31T08:51:19.815Z,14.88
2022-12-31T08:53:48.308Z,14.97
2022-12-31T08:56:48.796Z,14.96
2022-12-31T08:59:48.558Z,14.98
2022-12-31T09:02:53.176Z,15.13
2022-12-31T09:05:28.549Z,15.09
2022-12-31T09:08:12.093Z,15.12
2022-12-31T09:10:42.806Z,15.28
2022-12-31T09:13:47.518Z,15.25
2022-12-31T09:16:35.341Z,15.26
2022-12-31T09:19:02.341Z,15.28
2022-12-31T09:21:29.651Z,15.29
2022-12-31T09:23:57.078Z,15.31
2022-12-31T09:27:09.451Z,15.34
2022-12-31T09:29:51.525Z,15.35
2022-12-31T09:33:01.335Z,15.42
2022-12-31T09:35:58.573Z,15.49
2022-12-31T09:38:52.570Z,15.52
2022-12-31T09:42:10.840Z,15.69
2022-12-31T09:45:06.861Z,15.65
2022-12-31T09:47:48.884Z,15.79
2022-12-31T09:50:17.978Z,15.79
2022-12-31T09:53:16.226Z,15.97
2022-12-31T09:55:50.711Z,16.01
2022-12-31T09:59:00.028Z,16.03
2022-12-31T10:02:02.986Z,16.08
2022-12-31T10:04:51.579Z,16.13
2022-12-31T10:07:53.561Z,16.11
2022-12-31T10:10:52.413Z,16.12
2022-12-31T10:13:34.540Z,16.14
2022-12-31T10:16:25.286Z,16.27
2022-12-31T10:19:46.959Z,16.38
2022-12-31T10:22:32.014Z,16.32
2022-12-31T10:25:37.769Z,16.42
2022-12-31T10:28:20.232Z,16.52
2022-12-31T10:31:16.922Z,16.56
2022-12-31T10:34:07.057Z,16.63
2022-12-31T10:37:14.163Z,16.57
2022-12-31T10:40:09.016Z,16.70
2022-12-31T10:43:15.958Z,16.64
2022-12-31T10:46:04.541Z,16.72
2022-12-31T10:49:09.715Z,16.78
2022-12-31T10:52:08.523Z,16.94
2022-12-31T10:55:24.246Z,16.96
2022-12-31T10:58:26.472Z,17.10
2022-12-31T11:01:33.937Z,17.12
2022-12-31T11:04:25.361Z,17.20
2022-12-31T11:07:30.987Z,17.24
2022-12-31T11:10:39.353Z,17.35
2022-12-31T11:13:54.189Z,17.42
2022-12-31T11:16:29.898Z,17.36
2022-12-31T11:19:27.584Z,17.35
2022-12-31T11:22:41.970Z,17.48
2022-12-31T11:25:36.012Z,17.50
2022-12-31T11:28:41.161Z,17.55
2022-12-31T11:31:53.066Z,17.58
2022-12-31T11:34:38.264Z,17.69
2022-12-31T11:37:41.498Z,17.77
2022-12-31T11:40:44.575Z,17.85
2022-12-31T11:43:34.765Z,17.86
2022-12-31T11:46:18.712Z,17.94
2022-12-31T11:49:21.418Z,18.03
2022-12-31T11:52:24.817Z,18.01
2022-12-31T11:55:12.704Z,18.09
2022-12-31T11:57:43.650Z,18.21
2022-12-31T12:00:26.577Z,18.31
2022-12-31T12:03:04.527Z,18.37
2022-12-31T12:05:33.899Z,18.42
2022-12-31T12:08:03.162Z,18.57
2022-12-31T12:10:38.121Z,18.66
2022-12-31T12:13:25.093Z,18.75
2022-12-31T12:16:00.303Z,18.71
2022-12-31T12:18:40.970Z,18.72
2022-12-31T12:21:27.247Z,18.78
2022-12-31T12:24:01.293Z,18.82
2022-12-31T12:26:42.357Z,18.86
2022-12-31T12:29:20.646Z,18.98
2022-12-31T12:32:03.366Z,18.91
2022-12-31T12:34:39.454Z,18.91
2022-12-31T12:37:37.155Z,18.98
2022-12-31T12:40:19.816Z,18.99
2022-12-31T12:42:53.321Z,19.09
2022-12-31T12:45:36.990Z,19.17
2022-12-31T12:48:17.525Z,19.18
2022-12-31T12:50:48.284Z,19.28
2022-12-31T12:53:43.091Z,19.46
2022-12-31T12:56:30.746Z,19.83
2022-12-31T12:59:35.391Z,20.32
2022-12-31T13:02:22.944Z,20.58
2022-12-31T13:05:28.204Z,20.63
2022-12-31T13:08:10.808Z,20.59
2022-12-31T13:10:49.517Z,20.50
2022-12-31T13:13:47.182Z,20.47
2022-12-31T13:16:35.839Z,20.36
2022-12-31T13:19:46.127Z,20.11
2022-12-31T13:22:27.897Z,20.02
2022-12-31T13:25:32.970Z,19.89
2022-12-31T13:28:11.089Z,19.83
2022-12-31T13:30:50.738Z,19.83
2022-12-31T13:33:25.516Z,19.80
2022-12-31T13:36:19.130Z,19.76
2022-12-31T13:38:53.471Z,19.72
2022-12-31T13:42:09.619Z,19.63
2022-12-31T13:45:03.905Z,19.50
2022-12-31T13:47:49.943Z,19.48
2022-12-31T13:50:28.770Z,19.41
2022-12-31T13:53:26.969Z,19.32
2022-12-31T13:56:02.096Z,19.17
2022-12-31T13:58:50.493Z,19.21
2022-12-31T14:01:34.355Z,19.21
2022-12-31T14:04:47.149Z,19.13
2022-12-31T14:07:22.464Z,19.10
2022-12-31T14:09:50.078Z,19.06
2022-12-31T14:12:32.417Z,19.07
2022-12-31T14:15:23.450Z,18.94
2022-12-31T14:18:13.830Z,18.94
2022-12-31T14:20:49.464Z,18.84
2022-12-31T14:24:11.753Z,18.75
2022-12-31T14:26:50.774Z,18.73
2022-12-31T14:29:37.085Z,18.66
2022-12-31T14:32:17.015Z,18.55
2022-12-31T14:35:12.878Z,18.51
2022-12-31T14:38:12.533Z,18.44
2022-12-31T14:40:51.243Z,18.37
2022-12-31T14:43:46.453Z,18.36
2022-12-31T14:47:09.634Z,18.29
2022-12-31T14:50:04.885Z,18.18
2022-12-31T14:52:35.721Z,18.14
2022-12-31T14:55:20.580Z,18.11
2022-12-31T15:00:51.795Z,17.93
2022-12-31T15:03:18.877Z,17.92
2022-12-31T15:06:02.266Z,17.82
2022-12-31T15:09:08.536Z,17.74
2022-12-31T15:12:40.615Z,17.62
2022-12-31T15:15:41.462Z,17.53
2022-12-31T15:18:30.395Z,17.47
2022-12-31T15:21:46.351Z,17.43
2022-12-31T15:24:27.007Z,17.30
2022-12-31T15:27:04.523Z,17.27
2022-12-31T15:29:44.798Z,17.22
2022-12-31T15:32:20.833Z,17.22
2022-12-31T15:34:47.928Z,17.17
2022-12-31T15:37:35.998Z,17.20
2022-12-31T15:40:25.191Z,17.13
2022-12-31T15:43:20.167Z,17.06
2022-12-31T15:45:48.565Z,17.11
2022-12-31T15:48:39.506Z,17.12
2022-12-31T15:51:24.069Z,17.07
2022-12-31T15:53:55.064Z,17.00
2022-12-31T15:56:36.971Z,16.98
2022-12-31T15:59:11.374Z,16.97
2022-12-31T16:01:42.650Z,16.92
2022-12-31T16:04:29.281Z,16.84
2022-12-31T16:07:03.757Z,16.78
2022-12-31T16:09:34.655Z,16.78
2022-12-31T16:12:30.814Z,16.66
2022-12-31T16:15:00.780Z,16.58
2022-12-31T16:17:31.896Z,16.57
2022-12-31T16:20:01.399Z,16.53
2022-12-31T16:22:40.193Z,16.45
2022-12-31T16:25:32.432Z,16.44
2022-12-31T16:28:03.303Z,16.42
2022-12-31T16:30:36.137Z,16.35
2022-12-31T16:33:07.316Z,16.29
2022-12-31T16:35:37.471Z,16.29
2022-12-31T16:38:24.636Z,16.24
2022-12-31T16:41:07.227Z,16.19
2022-12-31T16:43:40.756Z,16.17
2022-12-31T16:46:27.588Z,16.15
2022-12-31T16:49:01.427Z,16.10
2022-12-31T16:51:31.899Z,16.07
2022-12-31T16:54:01.743Z,16.07
2022-12-31T16:56:42.606Z,16.04
2022-12-31T16:59:40.851Z,16.04
2022-12-31T17:02:35.039Z,15.98
2022-12-31T17:05:02.824Z,16.04
2022-12-31T17:07:33.034Z,15.95
2022-12-31T17:10:32.761Z,15.98
2022-12-31T17:15:52.266Z,16.00
2022-12-31T17:18:26.628Z,16.00
2022-12-31T17:20:55.294Z,16.10
2022-12-31T17:23:31.608Z,16.11
2022-12-31T17:26:28.076Z,16.13
2022-12-31T17:28:57.814Z,16.12
2022-12-31T17:31:40.871Z,16.19
2022-12-31T17:34:13.973Z,16.25
2022-12-31T17:36:57.170Z,16.13
2022-12-31T17:39:24.453Z,16.06
2022-12-31T17:41:56.097Z,16.02
2022-12-31T17:44:28.951Z,15.93
2022-12-31T17:46:56.276Z,15.85
2022-12-31T17:49:30.522Z,15.83
2022-12-31T17:51:58.018Z,15.81
2022-12-31T17:54:25.101Z,15.80
2022-12-31T17:56:53.876Z,15.74
2022-12-31T17:59:29.860Z,15.73
2022-12-31T18:02:05.053Z,15.75
2022-12-31T18:04:32.439Z,15.74
2022-12-31T18:06:59.601Z,15.74
2022-12-31T18:09:26.796Z,15.71
2022-12-31T18:11:56.938Z,15.65
2022-12-31T18:14:28.492Z,15.68
2022-12-31T18:16:55.525Z,15.64
2022-12-31T18:22:16.289Z,15.57
2022-12-31T18:24:44.451Z,15.55
2022-12-31T18:27:17.883Z,15.52
2022-12-31T18:29:47.409Z,15.50
2022-12-31T18:32:28.129Z,15.48
2022-12-31T18:34:55.433Z,15.47
2022-12-31T18:37:22.561Z,15.45
2022-12-31T18:39:49.771Z,15.38
2022-12-31T18:42:19.308Z,15.38
2022-12-31T18:44:46.807Z,15.31
2022-12-31T18:47:19.788Z,15.27
2022-12-31T18:49:48.744Z,15.30
2022-12-31T18:52:20.256Z,15.30
2022-12-31T18:54:48.277Z,15.24
2022-12-31T18:57:16.697Z,15.27
2022-12-31T18:59:43.857Z,15.21
2022-12-31T19:02:20.670Z,15.28
2022-12-31T19:04:48.723Z,15.21
2022-12-31T19:07:16.092Z,15.17
2022-12-31T19:09:46.059Z,15.16
2022-12-31T19:12:15.195Z,15.14
2022-12-31T19:14:42.525Z,15.02
2022-12-31T19:19:35.550Z,14.92
2022-12-31T19:22:03.945Z,14.87
2022-12-31T19:24:30.961Z,14.71
2022-12-31T19:26:58.038Z,14.57
2022-12-31T19:29:28.748Z,14.41
2022-12-31T19:31:56.050Z,14.30
2022-12-31T19:34:23.197Z,14.16
2022-12-31T19:36:50.308Z,14.17
2022-12-31T19:39:20.778Z,14.03
2022-12-31T19:41:58.790Z,13.90
2022-12-31T19:44:26.604Z,13.88
2022-12-31T19:46:53.693Z,13.82
2022-12-31T19:49:24.198Z,13.69
2022-12-31T19:51:51.621Z,13.49
2022-12-31T19:54:18.615Z,13.44
2022-12-31T19:56:45.609Z,13.50
2022-12-31T19:59:12.817Z,13.50
2022-12-31T20:01:40.001Z,13.40
2022-12-31T20:04:07.268Z,13.23
2022-12-31T20:06:34.542Z,13.17
2022-12-31T20:09:03.640Z,13.06
2022-12-31T20:11:30.676Z,12.90
2022-12-31T20:13:58.299Z,12.86
2022-12-31T20:16:27.074Z,12.89
2022-12-31T20:18:54.419Z,12.83
2022-12-31T20:21:24.819Z,12.77
2022-12-31T20:23:54.221Z,12.76
2022-12-31T20:26:23.558Z,12.96
2022-12-31T20:28:51.237Z,13.18
2022-12-31T20:31:24.573Z,13.37
2022-12-31T20:33:54.333Z,13.41
2022-12-31T20:36:22.526Z,13.54
2022-12-31T20:38:49.715Z,13.58
2022-12-31T20:41:22.781Z,13.56
2022-12-31T20:43:50.809Z,13.61
2022-12-31T20:46:24.424Z,13.67
2022-12-31T20:48:57.149Z,13.65
2022-12-31T20:51:26.427Z,13.63
2022-12-31T20:54:14.215Z,13.69
2022-12-31T20:56:42.308Z,13.62
2022-12-31T20:59:10.133Z,13.64
2022-12-31T21:02:11.808Z,13.49
2022-12-31T21:04:25.242Z,13.27
2022-12-31T21:06:52.398Z,13.22
2022-12-31T21:09:19.512Z,13.03
2022-12-31T21:12:05.550Z,12.87
2022-12-31T21:14:32.540Z,12.74
2022-12-31T21:16:59.813Z,12.60
2022-12-31T21:19:26.820Z,12.45
2022-12-31T21:21:53.999Z,12.33
2022-12-31T21:24:24.113Z,12.11
2022-12-31T21:26:57.007Z,12.11
2022-12-31T21:29:23.988Z,12.06
2022-12-31T21:31:51.048Z,11.98
2022-12-31T21:34:18.058Z,11.86
2022-12-31T21:36:45.625Z,11.86
2022-12-31T21:39:12.765Z,11.71
2022-12-31T21:41:51.931Z,11.66
2022-12-31T21:44:21.558Z,11.54
2022-12-31T21:47:34.950Z,11.53
2022-12-31T21:50:04.999Z,11.51
2022-12-31T21:52:34.369Z,11.33
2022-12-31T21:55:23.043Z,11.26
2022-12-31T22:00:57.707Z,11.12
2022-12-31T22:03:24.831Z,10.90
2022-12-31T22:06:09.101Z,10.94
2022-12-31T22:08:37.606Z,10.82
2022-12-31T22:11:05.078Z,10.81
2022-12-31T22:13:33.269Z,10.74
2022-12-31T22:16:05.409Z,10.64
2022-12-31T22:18:38.412Z,10.55
2022-12-31T22:21:20.001Z,10.48
2022-12-31T22:23:53.582Z,10.45
2022-12-31T22:26:24.583Z,10.39
2022-12-31T22:28:52.554Z,10.33
2022-12-31T22:31:24.673Z,10.28
2022-12-31T22:33:52.297Z,10.25
2022-12-31T22:36:24.000Z,10.17
2022-12-31T22:38:57.368Z,10.14
2022-12-31T22:41:25.865Z,10.17
2022-12-31T22:44:03.085Z,10.18
2022-12-31T22:46:32.380Z,10.12
2022-12-31T22:49:02.851Z,10.19
2022-12-31T22:51:55.303Z,10.05
2022-12-31T22:54:19.077Z,10.11
2022-12-31T22:56:46.304Z,10.49
2022-12-31T22:59:13.532Z,10.84
2022-12-31T23:01:40.782Z,11.00
2022-12-31T23:04:08.037Z,11.24
2022-12-31T23:06:43.501Z,11.33
2022-12-31T23:09:30.930Z,11.49
2022-12-31T23:11:58.572Z,11.60
2022-12-31T23:14:44.371Z,11.63
2022-12-31T23:17:37.732Z,11.80
2022-12-31T23:20:27.134Z,11.81
2022-12-31T23:23:07.309Z,11.84
2022-12-31T23:25:43.352Z,11.91
2022-12-31T23:28:17.611Z,11.83
2022-12-31T23:30:45.263Z,11.76
2022-12-31T23:33:19.995Z,11.78
2022-12-31T23:35:47.286Z,11.82
2022-12-31T23:38:16.722Z,11.77
2022-12-31T23:40:44.618Z,11.64
2022-12-31T23:43:21.520Z,11.54
2022-12-31T23:45:50.993Z,11.59
2022-12-31T23:48:18.072Z,11.51
2022-12-31T23:50:50.811Z,11.28
2022-12-31T23:53:19.933Z,11.26
2022-12-31T23:55:48.143Z,11.21
2022-12-31T23:58:15.941Z,11.04
